sensor_id;sensor_type;location;lat;lon;timestamp;P1;durP1;ratioP1;P2;durP2;ratioP2
73575;SDS011;61859;49.204;8.140;2024-01-07T00:01:26;4.27;;;3.30;;
73575;SDS011;61859;49.204;8.140;2024-01-07T00:03:51;4.10;;;3.13;;
73575;SDS011;61859;49.204;8.140;2024-01-07T00:06:17;3.83;;;3.13;;
73575;SDS011;61859;49.204;8.140;2024-01-07T00:08:43;3.20;;;2.90;;
73575;SDS011;61859;49.204;8.140;2024-01-07T00:11:08;4.00;;;3.17;;
73575;SDS011;61859;49.204;8.140;2024-01-07T00:13:34;4.17;;;3.17;;
73575;SDS011;61859;49.204;8.140;2024-01-07T00:16:00;3.30;;;2.90;;
73575;SDS011;61859;49.204;8.140;2024-01-07T00:18:26;4.37;;;3.23;;
73575;SDS011;61859;49.204;8.140;2024-01-07T00:20:52;3.60;;;3.10;;
73575;SDS011;61859;49.204;8.140;2024-01-07T00:23:18;4.17;;;3.00;;
73575;SDS011;61859;49.204;8.140;2024-01-07T00:25:45;4.27;;;2.97;;
73575;SDS011;61859;49.204;8.140;2024-01-07T00:28:11;3.70;;;3.20;;
73575;SDS011;61859;49.204;8.140;2024-01-07T00:30:37;3.70;;;3.10;;
73575;SDS011;61859;49.204;8.140;2024-01-07T00:33:03;3.67;;;2.90;;
73575;SDS011;61859;49.204;8.140;2024-01-07T00:35:28;4.10;;;3.20;;
73575;SDS011;61859;49.204;8.140;2024-01-07T00:37:54;4.63;;;3.27;;
73575;SDS011;61859;49.204;8.140;2024-01-07T00:40:21;4.90;;;3.47;;
73575;SDS011;61859;49.204;8.140;2024-01-07T00:42:50;4.27;;;3.20;;
73575;SDS011;61859;49.204;8.140;2024-01-07T00:45:16;4.80;;;3.73;;
73575;SDS011;61859;49.204;8.140;2024-01-07T00:47:42;4.73;;;3.30;;
73575;SDS011;61859;49.204;8.140;2024-01-07T00:50:08;10.03;;;3.93;;
73575;SDS011;61859;49.204;8.140;2024-01-07T00:52:34;5.57;;;3.47;;
73575;SDS011;61859;49.204;8.140;2024-01-07T00:55:02;4.73;;;3.20;;
73575;SDS011;61859;49.204;8.140;2024-01-07T00:57:31;4.93;;;3.50;;
73575;SDS011;61859;49.204;8.140;2024-01-07T00:59:57;6.00;;;3.80;;
73575;SDS011;61859;49.204;8.140;2024-01-07T01:02:24;5.43;;;3.60;;
73575;SDS011;61859;49.204;8.140;2024-01-07T01:04:49;3.60;;;3.13;;
73575;SDS011;61859;49.204;8.140;2024-01-07T01:07:15;3.83;;;3.07;;
73575;SDS011;61859;49.204;8.140;2024-01-07T01:09:41;4.90;;;3.10;;
73575;SDS011;61859;49.204;8.140;2024-01-07T01:12:06;5.23;;;3.47;;
73575;SDS011;61859;49.204;8.140;2024-01-07T01:14:32;4.77;;;3.50;;
73575;SDS011;61859;49.204;8.140;2024-01-07T01:16:57;5.00;;;3.50;;
73575;SDS011;61859;49.204;8.140;2024-01-07T01:19:23;6.33;;;3.53;;
73575;SDS011;61859;49.204;8.140;2024-01-07T01:21:49;4.80;;;3.60;;
73575;SDS011;61859;49.204;8.140;2024-01-07T01:24:15;4.37;;;3.50;;
73575;SDS011;61859;49.204;8.140;2024-01-07T01:26:40;4.17;;;3.37;;
73575;SDS011;61859;49.204;8.140;2024-01-07T01:29:06;5.07;;;3.53;;
73575;SDS011;61859;49.204;8.140;2024-01-07T01:31:31;6.20;;;3.97;;
73575;SDS011;61859;49.204;8.140;2024-01-07T01:33:57;5.20;;;3.60;;
73575;SDS011;61859;49.204;8.140;2024-01-07T01:36:22;5.83;;;4.00;;
73575;SDS011;61859;49.204;8.140;2024-01-07T01:38:49;5.03;;;3.73;;
73575;SDS011;61859;49.204;8.140;2024-01-07T01:41:15;5.83;;;3.80;;
73575;SDS011;61859;49.204;8.140;2024-01-07T01:43:41;6.03;;;3.90;;
73575;SDS011;61859;49.204;8.140;2024-01-07T01:46:08;6.60;;;4.03;;
73575;SDS011;61859;49.204;8.140;2024-01-07T01:48:34;5.53;;;3.53;;
73575;SDS011;61859;49.204;8.140;2024-01-07T01:51:00;5.20;;;3.40;;
73575;SDS011;61859;49.204;8.140;2024-01-07T01:53:27;4.87;;;3.90;;
73575;SDS011;61859;49.204;8.140;2024-01-07T01:55:53;4.83;;;3.17;;
73575;SDS011;61859;49.204;8.140;2024-01-07T01:58:21;5.80;;;3.73;;
73575;SDS011;61859;49.204;8.140;2024-01-07T02:00:48;5.40;;;3.90;;
73575;SDS011;61859;49.204;8.140;2024-01-07T02:03:14;4.10;;;3.50;;
73575;SDS011;61859;49.204;8.140;2024-01-07T02:05:40;4.53;;;3.50;;
73575;SDS011;61859;49.204;8.140;2024-01-07T02:08:05;4.40;;;3.40;;
73575;SDS011;61859;49.204;8.140;2024-01-07T02:10:32;4.07;;;3.27;;
73575;SDS011;61859;49.204;8.140;2024-01-07T02:13:01;4.73;;;3.50;;
73575;SDS011;61859;49.204;8.140;2024-01-07T02:15:28;4.17;;;3.23;;
73575;SDS011;61859;49.204;8.140;2024-01-07T02:17:53;4.80;;;3.07;;
73575;SDS011;61859;49.204;8.140;2024-01-07T02:20:19;4.53;;;3.23;;
73575;SDS011;61859;49.204;8.140;2024-01-07T02:22:45;3.77;;;2.90;;
73575;SDS011;61859;49.204;8.140;2024-01-07T02:25:10;3.37;;;2.90;;
73575;SDS011;61859;49.204;8.140;2024-01-07T02:27:36;3.63;;;3.00;;
73575;SDS011;61859;49.204;8.140;2024-01-07T02:30:01;3.40;;;2.70;;
73575;SDS011;61859;49.204;8.140;2024-01-07T02:32:27;4.80;;;3.43;;
73575;SDS011;61859;49.204;8.140;2024-01-07T02:34:53;5.23;;;3.30;;
73575;SDS011;61859;49.204;8.140;2024-01-07T02:37:18;3.93;;;2.83;;
73575;SDS011;61859;49.204;8.140;2024-01-07T02:39:44;3.37;;;3.03;;
73575;SDS011;61859;49.204;8.140;2024-01-07T02:42:10;5.40;;;3.43;;
73575;SDS011;61859;49.204;8.140;2024-01-07T02:44:35;4.00;;;2.67;;
73575;SDS011;61859;49.204;8.140;2024-01-07T02:47:01;4.43;;;2.93;;
73575;SDS011;61859;49.204;8.140;2024-01-07T02:49:26;4.07;;;2.90;;
73575;SDS011;61859;49.204;8.140;2024-01-07T02:51:53;3.80;;;3.13;;
73575;SDS011;61859;49.204;8.140;2024-01-07T02:54:18;4.83;;;3.40;;
73575;SDS011;61859;49.204;8.140;2024-01-07T02:56:44;4.60;;;2.97;;
73575;SDS011;61859;49.204;8.140;2024-01-07T02:59:10;4.57;;;3.33;;
73575;SDS011;61859;49.204;8.140;2024-01-07T03:01:35;3.37;;;2.97;;
73575;SDS011;61859;49.204;8.140;2024-01-07T03:04:05;4.03;;;3.30;;
73575;SDS011;61859;49.204;8.140;2024-01-07T03:06:32;3.63;;;3.03;;
73575;SDS011;61859;49.204;8.140;2024-01-07T03:08:57;3.97;;;2.83;;
73575;SDS011;61859;49.204;8.140;2024-01-07T03:11:23;5.47;;;3.50;;
73575;SDS011;61859;49.204;8.140;2024-01-07T03:13:48;4.67;;;3.70;;
73575;SDS011;61859;49.204;8.140;2024-01-07T03:16:20;3.50;;;2.87;;
73575;SDS011;61859;49.204;8.140;2024-01-07T03:18:46;3.30;;;2.90;;
73575;SDS011;61859;49.204;8.140;2024-01-07T03:21:18;4.77;;;3.17;;
73575;SDS011;61859;49.204;8.140;2024-01-07T03:23:45;3.67;;;3.27;;
73575;SDS011;61859;49.204;8.140;2024-01-07T03:26:11;4.07;;;3.20;;
73575;SDS011;61859;49.204;8.140;2024-01-07T03:28:37;4.63;;;3.07;;
73575;SDS011;61859;49.204;8.140;2024-01-07T03:31:11;5.40;;;3.90;;
73575;SDS011;61859;49.204;8.140;2024-01-07T03:33:38;5.53;;;3.30;;
73575;SDS011;61859;49.204;8.140;2024-01-07T03:36:08;4.17;;;3.40;;
73575;SDS011;61859;49.204;8.140;2024-01-07T03:38:35;4.20;;;3.53;;
73575;SDS011;61859;49.204;8.140;2024-01-07T03:41:01;4.53;;;3.23;;
73575;SDS011;61859;49.204;8.140;2024-01-07T03:43:26;4.50;;;3.40;;
73575;SDS011;61859;49.204;8.140;2024-01-07T03:45:52;3.40;;;3.00;;
73575;SDS011;61859;49.204;8.140;2024-01-07T03:48:17;4.50;;;3.43;;
73575;SDS011;61859;49.204;8.140;2024-01-07T03:50:43;4.63;;;3.77;;
73575;SDS011;61859;49.204;8.140;2024-01-07T03:53:09;5.93;;;3.90;;
73575;SDS011;61859;49.204;8.140;2024-01-07T03:55:34;4.30;;;3.53;;
73575;SDS011;61859;49.204;8.140;2024-01-07T03:58:00;5.00;;;3.50;;
73575;SDS011;61859;49.204;8.140;2024-01-07T04:00:25;4.83;;;3.47;;
73575;SDS011;61859;49.204;8.140;2024-01-07T04:02:51;4.60;;;3.70;;
73575;SDS011;61859;49.204;8.140;2024-01-07T04:05:16;4.87;;;3.60;;
73575;SDS011;61859;49.204;8.140;2024-01-07T04:07:42;4.17;;;3.43;;
73575;SDS011;61859;49.204;8.140;2024-01-07T04:10:07;5.83;;;3.97;;
73575;SDS011;61859;49.204;8.140;2024-01-07T04:12:33;3.90;;;3.40;;
73575;SDS011;61859;49.204;8.140;2024-01-07T04:14:58;4.37;;;3.90;;
73575;SDS011;61859;49.204;8.140;2024-01-07T04:17:24;4.33;;;3.20;;
73575;SDS011;61859;49.204;8.140;2024-01-07T04:19:50;4.07;;;3.07;;
73575;SDS011;61859;49.204;8.140;2024-01-07T04:22:16;4.60;;;3.60;;
73575;SDS011;61859;49.204;8.140;2024-01-07T04:24:42;4.43;;;3.33;;
73575;SDS011;61859;49.204;8.140;2024-01-07T04:27:07;4.67;;;3.33;;
73575;SDS011;61859;49.204;8.140;2024-01-07T04:29:33;4.63;;;3.30;;
73575;SDS011;61859;49.204;8.140;2024-01-07T04:31:58;3.70;;;3.00;;
73575;SDS011;61859;49.204;8.140;2024-01-07T04:34:24;3.57;;;2.90;;
73575;SDS011;61859;49.204;8.140;2024-01-07T04:36:50;4.53;;;3.17;;
73575;SDS011;61859;49.204;8.140;2024-01-07T04:39:16;5.20;;;3.40;;
73575;SDS011;61859;49.204;8.140;2024-01-07T04:41:41;4.43;;;3.50;;
73575;SDS011;61859;49.204;8.140;2024-01-07T04:44:07;4.50;;;3.53;;
73575;SDS011;61859;49.204;8.140;2024-01-07T04:46:39;4.50;;;3.57;;
73575;SDS011;61859;49.204;8.140;2024-01-07T04:49:05;3.80;;;2.93;;
73575;SDS011;61859;49.204;8.140;2024-01-07T04:51:31;5.43;;;3.70;;
73575;SDS011;61859;49.204;8.140;2024-01-07T04:53:57;5.20;;;3.43;;
73575;SDS011;61859;49.204;8.140;2024-01-07T04:56:23;5.17;;;3.80;;
73575;SDS011;61859;49.204;8.140;2024-01-07T04:58:48;4.87;;;3.20;;
73575;SDS011;61859;49.204;8.140;2024-01-07T05:01:14;4.57;;;3.37;;
73575;SDS011;61859;49.204;8.140;2024-01-07T05:03:40;4.60;;;3.30;;
73575;SDS011;61859;49.204;8.140;2024-01-07T05:06:08;4.63;;;3.57;;
73575;SDS011;61859;49.204;8.140;2024-01-07T05:08:35;6.53;;;4.20;;
73575;SDS011;61859;49.204;8.140;2024-01-07T05:11:01;4.77;;;3.77;;
73575;SDS011;61859;49.204;8.140;2024-01-07T05:13:26;4.77;;;3.93;;
73575;SDS011;61859;49.204;8.140;2024-01-07T05:15:52;4.80;;;3.50;;
73575;SDS011;61859;49.204;8.140;2024-01-07T05:18:21;5.13;;;3.87;;
73575;SDS011;61859;49.204;8.140;2024-01-07T05:20:47;6.27;;;4.10;;
73575;SDS011;61859;49.204;8.140;2024-01-07T05:23:13;5.43;;;3.87;;
73575;SDS011;61859;49.204;8.140;2024-01-07T05:25:39;6.20;;;4.47;;
73575;SDS011;61859;49.204;8.140;2024-01-07T05:28:06;4.30;;;3.57;;
73575;SDS011;61859;49.204;8.140;2024-01-07T05:30:32;4.17;;;3.27;;
73575;SDS011;61859;49.204;8.140;2024-01-07T05:32:57;4.67;;;3.33;;
73575;SDS011;61859;49.204;8.140;2024-01-07T05:35:23;3.90;;;2.90;;
73575;SDS011;61859;49.204;8.140;2024-01-07T05:37:49;5.30;;;3.73;;
73575;SDS011;61859;49.204;8.140;2024-01-07T05:40:14;4.30;;;3.10;;
73575;SDS011;61859;49.204;8.140;2024-01-07T05:42:40;4.07;;;3.67;;
73575;SDS011;61859;49.204;8.140;2024-01-07T05:45:05;7.30;;;3.30;;
73575;SDS011;61859;49.204;8.140;2024-01-07T05:47:31;4.53;;;3.37;;
73575;SDS011;61859;49.204;8.140;2024-01-07T05:49:57;4.07;;;3.60;;
73575;SDS011;61859;49.204;8.140;2024-01-07T05:52:23;5.90;;;3.03;;
73575;SDS011;61859;49.204;8.140;2024-01-07T05:54:49;4.50;;;3.17;;
73575;SDS011;61859;49.204;8.140;2024-01-07T05:57:14;3.97;;;3.23;;
73575;SDS011;61859;49.204;8.140;2024-01-07T05:59:40;3.77;;;3.10;;
73575;SDS011;61859;49.204;8.140;2024-01-07T06:02:05;4.37;;;3.23;;
73575;SDS011;61859;49.204;8.140;2024-01-07T06:04:31;5.10;;;3.67;;
73575;SDS011;61859;49.204;8.140;2024-01-07T06:06:57;5.30;;;3.93;;
73575;SDS011;61859;49.204;8.140;2024-01-07T06:09:23;6.13;;;3.47;;
73575;SDS011;61859;49.204;8.140;2024-01-07T06:11:50;3.80;;;3.20;;
73575;SDS011;61859;49.204;8.140;2024-01-07T06:14:15;3.27;;;2.93;;
73575;SDS011;61859;49.204;8.140;2024-01-07T06:16:41;3.47;;;3.10;;
73575;SDS011;61859;49.204;8.140;2024-01-07T06:19:07;4.70;;;3.37;;
73575;SDS011;61859;49.204;8.140;2024-01-07T06:21:33;4.50;;;4.10;;
73575;SDS011;61859;49.204;8.140;2024-01-07T06:23:58;4.00;;;3.57;;
73575;SDS011;61859;49.204;8.140;2024-01-07T06:26:24;11.63;;;6.53;;
73575;SDS011;61859;49.204;8.140;2024-01-07T06:28:49;9.17;;;6.27;;
73575;SDS011;61859;49.204;8.140;2024-01-07T06:31:15;10.80;;;9.33;;
73575;SDS011;61859;49.204;8.140;2024-01-07T06:33:40;6.20;;;4.67;;
73575;SDS011;61859;49.204;8.140;2024-01-07T06:36:06;6.07;;;4.47;;
73575;SDS011;61859;49.204;8.140;2024-01-07T06:38:32;7.90;;;4.40;;
73575;SDS011;61859;49.204;8.140;2024-01-07T06:40:58;5.57;;;4.27;;
73575;SDS011;61859;49.204;8.140;2024-01-07T06:43:29;8.07;;;5.43;;
73575;SDS011;61859;49.204;8.140;2024-01-07T06:45:55;8.07;;;5.00;;
73575;SDS011;61859;49.204;8.140;2024-01-07T06:48:20;7.60;;;4.30;;
73575;SDS011;61859;49.204;8.140;2024-01-07T06:50:46;10.97;;;5.13;;
73575;SDS011;61859;49.204;8.140;2024-01-07T06:53:11;6.50;;;4.50;;
73575;SDS011;61859;49.204;8.140;2024-01-07T06:55:37;8.97;;;4.90;;
73575;SDS011;61859;49.204;8.140;2024-01-07T06:58:03;6.67;;;4.63;;
73575;SDS011;61859;49.204;8.140;2024-01-07T07:00:28;5.83;;;4.27;;
73575;SDS011;61859;49.204;8.140;2024-01-07T07:02:54;7.60;;;5.00;;
73575;SDS011;61859;49.204;8.140;2024-01-07T07:05:19;7.77;;;4.90;;
73575;SDS011;61859;49.204;8.140;2024-01-07T07:07:45;6.90;;;5.03;;
73575;SDS011;61859;49.204;8.140;2024-01-07T07:10:10;7.80;;;5.17;;
73575;SDS011;61859;49.204;8.140;2024-01-07T07:12:36;9.33;;;4.97;;
73575;SDS011;61859;49.204;8.140;2024-01-07T07:15:02;9.07;;;5.20;;
73575;SDS011;61859;49.204;8.140;2024-01-07T07:17:27;8.90;;;4.83;;
73575;SDS011;61859;49.204;8.140;2024-01-07T07:19:53;8.83;;;4.87;;
73575;SDS011;61859;49.204;8.140;2024-01-07T07:22:19;6.93;;;5.00;;
73575;SDS011;61859;49.204;8.140;2024-01-07T07:24:44;7.63;;;5.03;;
73575;SDS011;61859;49.204;8.140;2024-01-07T07:27:10;7.63;;;5.03;;
73575;SDS011;61859;49.204;8.140;2024-01-07T07:29:35;7.30;;;5.13;;
73575;SDS011;61859;49.204;8.140;2024-01-07T07:32:01;8.13;;;5.53;;
73575;SDS011;61859;49.204;8.140;2024-01-07T07:34:26;8.30;;;5.30;;
73575;SDS011;61859;49.204;8.140;2024-01-07T07:36:52;8.67;;;5.03;;
73575;SDS011;61859;49.204;8.140;2024-01-07T07:39:17;8.23;;;5.33;;
73575;SDS011;61859;49.204;8.140;2024-01-07T07:41:43;9.30;;;5.47;;
73575;SDS011;61859;49.204;8.140;2024-01-07T07:44:08;8.87;;;5.23;;
73575;SDS011;61859;49.204;8.140;2024-01-07T07:46:34;6.43;;;4.67;;
73575;SDS011;61859;49.204;8.140;2024-01-07T07:49:00;7.03;;;5.40;;
73575;SDS011;61859;49.204;8.140;2024-01-07T07:51:26;7.67;;;5.23;;
73575;SDS011;61859;49.204;8.140;2024-01-07T07:53:52;8.40;;;5.50;;
73575;SDS011;61859;49.204;8.140;2024-01-07T07:56:18;12.10;;;5.90;;
73575;SDS011;61859;49.204;8.140;2024-01-07T07:58:43;8.47;;;5.50;;
73575;SDS011;61859;49.204;8.140;2024-01-07T08:01:09;8.20;;;5.43;;
73575;SDS011;61859;49.204;8.140;2024-01-07T08:03:34;6.50;;;5.20;;
73575;SDS011;61859;49.204;8.140;2024-01-07T08:06:01;8.73;;;5.80;;
73575;SDS011;61859;49.204;8.140;2024-01-07T08:08:27;8.30;;;5.50;;
73575;SDS011;61859;49.204;8.140;2024-01-07T08:10:52;9.33;;;6.27;;
73575;SDS011;61859;49.204;8.140;2024-01-07T08:13:18;9.53;;;6.30;;
73575;SDS011;61859;49.204;8.140;2024-01-07T08:15:44;9.83;;;6.60;;
73575;SDS011;61859;49.204;8.140;2024-01-07T08:18:10;9.03;;;6.13;;
73575;SDS011;61859;49.204;8.140;2024-01-07T08:20:35;9.00;;;6.20;;
73575;SDS011;61859;49.204;8.140;2024-01-07T08:23:01;8.80;;;6.10;;
73575;SDS011;61859;49.204;8.140;2024-01-07T08:25:26;8.80;;;6.10;;
73575;SDS011;61859;49.204;8.140;2024-01-07T08:27:52;9.67;;;6.50;;
73575;SDS011;61859;49.204;8.140;2024-01-07T08:30:17;6.77;;;5.27;;
73575;SDS011;61859;49.204;8.140;2024-01-07T08:32:43;7.50;;;5.40;;
73575;SDS011;61859;49.204;8.140;2024-01-07T08:35:09;10.00;;;6.03;;
73575;SDS011;61859;49.204;8.140;2024-01-07T08:37:34;12.03;;;6.80;;
73575;SDS011;61859;49.204;8.140;2024-01-07T08:40:00;8.60;;;5.70;;
73575;SDS011;61859;49.204;8.140;2024-01-07T08:42:26;7.67;;;5.73;;
73575;SDS011;61859;49.204;8.140;2024-01-07T08:44:52;8.90;;;5.97;;
73575;SDS011;61859;49.204;8.140;2024-01-07T08:47:17;7.53;;;5.33;;
73575;SDS011;61859;49.204;8.140;2024-01-07T08:49:43;7.23;;;5.77;;
73575;SDS011;61859;49.204;8.140;2024-01-07T08:52:08;9.43;;;6.43;;
73575;SDS011;61859;49.204;8.140;2024-01-07T08:54:34;7.90;;;6.17;;
73575;SDS011;61859;49.204;8.140;2024-01-07T08:57:00;9.93;;;6.13;;
73575;SDS011;61859;49.204;8.140;2024-01-07T08:59:25;10.00;;;6.23;;
73575;SDS011;61859;49.204;8.140;2024-01-07T09:01:51;10.17;;;6.77;;
73575;SDS011;61859;49.204;8.140;2024-01-07T09:04:16;7.23;;;5.63;;
73575;SDS011;61859;49.204;8.140;2024-01-07T09:09:12;9.50;;;6.33;;
73575;SDS011;61859;49.204;8.140;2024-01-07T09:11:38;10.57;;;6.90;;
73575;SDS011;61859;49.204;8.140;2024-01-07T09:14:03;9.43;;;6.63;;
73575;SDS011;61859;49.204;8.140;2024-01-07T09:16:29;9.43;;;6.70;;
73575;SDS011;61859;49.204;8.140;2024-01-07T09:18:55;8.07;;;6.43;;
73575;SDS011;61859;49.204;8.140;2024-01-07T09:21:20;8.77;;;5.90;;
73575;SDS011;61859;49.204;8.140;2024-01-07T09:23:48;11.83;;;6.57;;
73575;SDS011;61859;49.204;8.140;2024-01-07T09:26:14;8.93;;;6.13;;
73575;SDS011;61859;49.204;8.140;2024-01-07T09:28:39;9.40;;;7.23;;
73575;SDS011;61859;49.204;8.140;2024-01-07T09:31:05;8.37;;;6.13;;
73575;SDS011;61859;49.204;8.140;2024-01-07T09:33:31;9.33;;;6.80;;
73575;SDS011;61859;49.204;8.140;2024-01-07T09:35:56;8.37;;;5.87;;
73575;SDS011;61859;49.204;8.140;2024-01-07T09:38:22;10.53;;;6.93;;
73575;SDS011;61859;49.204;8.140;2024-01-07T09:40:49;13.20;;;7.37;;
73575;SDS011;61859;49.204;8.140;2024-01-07T09:43:15;9.73;;;5.83;;
73575;SDS011;61859;49.204;8.140;2024-01-07T09:45:41;10.13;;;6.83;;
73575;SDS011;61859;49.204;8.140;2024-01-07T09:48:10;10.33;;;6.30;;
73575;SDS011;61859;49.204;8.140;2024-01-07T09:50:36;8.23;;;5.80;;
73575;SDS011;61859;49.204;8.140;2024-01-07T09:53:01;9.07;;;5.90;;
73575;SDS011;61859;49.204;8.140;2024-01-07T09:55:31;10.07;;;6.50;;
73575;SDS011;61859;49.204;8.140;2024-01-07T09:57:59;8.80;;;5.67;;
73575;SDS011;61859;49.204;8.140;2024-01-07T10:00:26;9.60;;;6.23;;
73575;SDS011;61859;49.204;8.140;2024-01-07T10:02:52;7.03;;;5.27;;
73575;SDS011;61859;49.204;8.140;2024-01-07T10:05:19;8.43;;;5.93;;
73575;SDS011;61859;49.204;8.140;2024-01-07T10:07:44;8.90;;;6.33;;
73575;SDS011;61859;49.204;8.140;2024-01-07T10:10:19;7.60;;;5.53;;
73575;SDS011;61859;49.204;8.140;2024-01-07T10:12:45;10.57;;;5.73;;
73575;SDS011;61859;49.204;8.140;2024-01-07T10:15:13;9.47;;;6.27;;
73575;SDS011;61859;49.204;8.140;2024-01-07T10:17:40;8.77;;;5.30;;
73575;SDS011;61859;49.204;8.140;2024-01-07T10:20:07;7.13;;;5.00;;
73575;SDS011;61859;49.204;8.140;2024-01-07T10:22:38;7.77;;;5.60;;
73575;SDS011;61859;49.204;8.140;2024-01-07T10:25:04;7.83;;;5.83;;
73575;SDS011;61859;49.204;8.140;2024-01-07T10:27:33;6.60;;;5.13;;
73575;SDS011;61859;49.204;8.140;2024-01-07T10:30:00;8.00;;;5.43;;
73575;SDS011;61859;49.204;8.140;2024-01-07T10:32:27;8.07;;;5.53;;
73575;SDS011;61859;49.204;8.140;2024-01-07T10:34:54;8.90;;;5.70;;
73575;SDS011;61859;49.204;8.140;2024-01-07T10:37:27;5.77;;;4.53;;
73575;SDS011;61859;49.204;8.140;2024-01-07T10:39:53;7.60;;;5.07;;
73575;SDS011;61859;49.204;8.140;2024-01-07T10:42:22;7.13;;;5.63;;
73575;SDS011;61859;49.204;8.140;2024-01-07T10:44:49;8.13;;;5.50;;
73575;SDS011;61859;49.204;8.140;2024-01-07T10:47:14;7.33;;;5.10;;
73575;SDS011;61859;49.204;8.140;2024-01-07T10:49:44;7.20;;;5.33;;
73575;SDS011;61859;49.204;8.140;2024-01-07T10:52:15;6.83;;;5.03;;
73575;SDS011;61859;49.204;8.140;2024-01-07T10:54:42;11.00;;;5.50;;
73575;SDS011;61859;49.204;8.140;2024-01-07T10:57:22;6.57;;;4.83;;
73575;SDS011;61859;49.204;8.140;2024-01-07T10:59:55;8.17;;;5.20;;
73575;SDS011;61859;49.204;8.140;2024-01-07T11:02:21;6.70;;;4.70;;
73575;SDS011;61859;49.204;8.140;2024-01-07T11:07:31;7.20;;;4.87;;
73575;SDS011;61859;49.204;8.140;2024-01-07T11:10:07;7.03;;;5.10;;
73575;SDS011;61859;49.204;8.140;2024-01-07T11:12:37;5.77;;;4.53;;
73575;SDS011;61859;49.204;8.140;2024-01-07T11:15:03;7.13;;;5.23;;
73575;SDS011;61859;49.204;8.140;2024-01-07T11:19:59;7.10;;;5.40;;
73575;SDS011;61859;49.204;8.140;2024-01-07T11:22:25;4.90;;;3.90;;
73575;SDS011;61859;49.204;8.140;2024-01-07T11:24:55;6.33;;;4.50;;
73575;SDS011;61859;49.204;8.140;2024-01-07T11:27:25;5.30;;;4.20;;
73575;SDS011;61859;49.204;8.140;2024-01-07T11:30:02;6.70;;;4.80;;
73575;SDS011;61859;49.204;8.140;2024-01-07T11:32:33;6.73;;;4.70;;
73575;SDS011;61859;49.204;8.140;2024-01-07T11:34:59;5.03;;;4.10;;
73575;SDS011;61859;49.204;8.140;2024-01-07T11:37:26;5.80;;;4.17;;
73575;SDS011;61859;49.204;8.140;2024-01-07T11:39:53;6.03;;;4.80;;
73575;SDS011;61859;49.204;8.140;2024-01-07T11:42:20;6.60;;;3.90;;
73575;SDS011;61859;49.204;8.140;2024-01-07T11:44:48;5.03;;;4.20;;
73575;SDS011;61859;49.204;8.140;2024-01-07T11:47:15;6.33;;;4.30;;
73575;SDS011;61859;49.204;8.140;2024-01-07T11:49:44;5.83;;;4.47;;
73575;SDS011;61859;49.204;8.140;2024-01-07T11:52:10;5.60;;;4.07;;
73575;SDS011;61859;49.204;8.140;2024-01-07T11:54:36;4.73;;;3.67;;
73575;SDS011;61859;49.204;8.140;2024-01-07T11:57:03;5.33;;;4.17;;
73575;SDS011;61859;49.204;8.140;2024-01-07T11:59:29;4.73;;;4.00;;
73575;SDS011;61859;49.204;8.140;2024-01-07T12:01:55;4.57;;;3.70;;
73575;SDS011;61859;49.204;8.140;2024-01-07T12:04:20;6.27;;;3.70;;
73575;SDS011;61859;49.204;8.140;2024-01-07T12:06:47;5.57;;;4.17;;
73575;SDS011;61859;49.204;8.140;2024-01-07T12:09:15;4.37;;;3.40;;
73575;SDS011;61859;49.204;8.140;2024-01-07T12:11:41;5.13;;;3.83;;
73575;SDS011;61859;49.204;8.140;2024-01-07T12:14:08;6.33;;;4.70;;
73575;SDS011;61859;49.204;8.140;2024-01-07T12:16:34;6.37;;;4.40;;
73575;SDS011;61859;49.204;8.140;2024-01-07T12:19:00;5.77;;;4.13;;
73575;SDS011;61859;49.204;8.140;2024-01-07T12:21:26;5.50;;;4.07;;
73575;SDS011;61859;49.204;8.140;2024-01-07T12:23:53;4.63;;;3.73;;
73575;SDS011;61859;49.204;8.140;2024-01-07T12:26:19;5.10;;;3.83;;
73575;SDS011;61859;49.204;8.140;2024-01-07T12:28:51;4.77;;;3.97;;
73575;SDS011;61859;49.204;8.140;2024-01-07T12:31:24;5.47;;;4.07;;
73575;SDS011;61859;49.204;8.140;2024-01-07T12:33:51;4.53;;;3.80;;
73575;SDS011;61859;49.204;8.140;2024-01-07T12:36:20;5.43;;;4.07;;
73575;SDS011;61859;49.204;8.140;2024-01-07T12:38:46;6.63;;;4.00;;
73575;SDS011;61859;49.204;8.140;2024-01-07T12:41:12;5.90;;;4.27;;
73575;SDS011;61859;49.204;8.140;2024-01-07T12:43:38;6.30;;;4.40;;
73575;SDS011;61859;49.204;8.140;2024-01-07T12:46:04;4.67;;;4.07;;
73575;SDS011;61859;49.204;8.140;2024-01-07T12:48:30;6.43;;;4.53;;
73575;SDS011;61859;49.204;8.140;2024-01-07T12:50:56;6.33;;;4.13;;
73575;SDS011;61859;49.204;8.140;2024-01-07T12:53:22;6.37;;;4.40;;
73575;SDS011;61859;49.204;8.140;2024-01-07T12:55:48;5.00;;;3.73;;
73575;SDS011;61859;49.204;8.140;2024-01-07T12:58:13;6.57;;;4.27;;
73575;SDS011;61859;49.204;8.140;2024-01-07T13:00:39;4.93;;;4.27;;
73575;SDS011;61859;49.204;8.140;2024-01-07T13:03:05;6.47;;;4.23;;
73575;SDS011;61859;49.204;8.140;2024-01-07T13:05:32;5.67;;;4.37;;
73575;SDS011;61859;49.204;8.140;2024-01-07T13:07:58;6.87;;;4.50;;
73575;SDS011;61859;49.204;8.140;2024-01-07T13:10:25;6.27;;;4.27;;
73575;SDS011;61859;49.204;8.140;2024-01-07T13:12:50;6.73;;;4.40;;
73575;SDS011;61859;49.204;8.140;2024-01-07T13:15:16;6.70;;;4.27;;
73575;SDS011;61859;49.204;8.140;2024-01-07T13:17:42;6.83;;;4.30;;
73575;SDS011;61859;49.204;8.140;2024-01-07T13:20:08;5.50;;;4.37;;
73575;SDS011;61859;49.204;8.140;2024-01-07T13:22:36;7.13;;;4.90;;
73575;SDS011;61859;49.204;8.140;2024-01-07T13:25:03;6.37;;;4.23;;
73575;SDS011;61859;49.204;8.140;2024-01-07T13:27:30;5.70;;;4.63;;
73575;SDS011;61859;49.204;8.140;2024-01-07T13:29:56;5.93;;;4.33;;
73575;SDS011;61859;49.204;8.140;2024-01-07T13:32:21;6.23;;;4.20;;
73575;SDS011;61859;49.204;8.140;2024-01-07T13:34:47;5.90;;;4.37;;
73575;SDS011;61859;49.204;8.140;2024-01-07T13:37:13;7.03;;;4.67;;
73575;SDS011;61859;49.204;8.140;2024-01-07T13:39:38;7.20;;;4.53;;
73575;SDS011;61859;49.204;8.140;2024-01-07T13:42:04;6.47;;;4.43;;
73575;SDS011;61859;49.204;8.140;2024-01-07T13:44:30;7.03;;;4.50;;
73575;SDS011;61859;49.204;8.140;2024-01-07T13:46:56;6.47;;;4.67;;
73575;SDS011;61859;49.204;8.140;2024-01-07T13:49:22;6.20;;;4.60;;
73575;SDS011;61859;49.204;8.140;2024-01-07T13:51:47;6.23;;;4.60;;
73575;SDS011;61859;49.204;8.140;2024-01-07T13:54:13;5.90;;;3.97;;
73575;SDS011;61859;49.204;8.140;2024-01-07T13:56:43;5.87;;;4.70;;
73575;SDS011;61859;49.204;8.140;2024-01-07T13:59:09;5.40;;;4.20;;
73575;SDS011;61859;49.204;8.140;2024-01-07T14:01:35;6.60;;;4.57;;
73575;SDS011;61859;49.204;8.140;2024-01-07T14:04:01;5.77;;;4.30;;
73575;SDS011;61859;49.204;8.140;2024-01-07T14:06:27;8.80;;;4.70;;
73575;SDS011;61859;49.204;8.140;2024-01-07T14:08:52;5.90;;;4.73;;
73575;SDS011;61859;49.204;8.140;2024-01-07T14:11:18;7.43;;;4.17;;
73575;SDS011;61859;49.204;8.140;2024-01-07T14:13:44;4.97;;;4.33;;
73575;SDS011;61859;49.204;8.140;2024-01-07T14:16:11;6.07;;;4.33;;
73575;SDS011;61859;49.204;8.140;2024-01-07T14:18:37;7.60;;;4.53;;
73575;SDS011;61859;49.204;8.140;2024-01-07T14:21:02;3.97;;;3.57;;
73575;SDS011;61859;49.204;8.140;2024-01-07T14:23:28;5.83;;;4.30;;
73575;SDS011;61859;49.204;8.140;2024-01-07T14:25:56;8.90;;;4.63;;
73575;SDS011;61859;49.204;8.140;2024-01-07T14:28:22;6.53;;;4.50;;
73575;SDS011;61859;49.204;8.140;2024-01-07T14:30:47;7.70;;;5.03;;
73575;SDS011;61859;49.204;8.140;2024-01-07T14:33:14;7.93;;;4.93;;
73575;SDS011;61859;49.204;8.140;2024-01-07T14:35:39;8.83;;;5.00;;
73575;SDS011;61859;49.204;8.140;2024-01-07T14:38:05;6.20;;;3.73;;
73575;SDS011;61859;49.204;8.140;2024-01-07T14:40:30;11.53;;;4.37;;
73575;SDS011;61859;49.204;8.140;2024-01-07T14:42:56;7.73;;;5.10;;
73575;SDS011;61859;49.204;8.140;2024-01-07T14:45:25;7.00;;;4.23;;
73575;SDS011;61859;49.204;8.140;2024-01-07T14:47:51;8.67;;;4.67;;
73575;SDS011;61859;49.204;8.140;2024-01-07T14:50:17;6.80;;;4.63;;